WEATHER DATA

YESTERDAY
Time Temp. Dewp. Hum. Bar. 1h Prec. 24h Prec.
00:09 17 16.2 95 1011.5 0.0000 0.0000
00:19 17 16.2 95 1011.5 0.0000 0.0000
00:29 16.9 16.1 95 1011.5 0.0000 0.0000
00:40 16.9 16.1 95 1011.6 0.0000 0.0000
00:49 16.9 16.1 95 1011.6 0.0000 0.0000
00:59 16.8 15.8 94 1011.6 0.0000 0.0000
01:10 16.8 15.7 93 1011.6 0.0000 0.0000
01:20 16.7 15.6 93 1011.6 0.0000 0.0000
01:30 16.7 15.6 93 1011.5 0.0000 0.0000
01:40 16.6 15.3 92 1011.6 0.0000 0.0000
01:51 16.5 15.2 92 1011.6 0.0000 0.0000
02:00 16.4 15.1 92 1011.6 0.0000 0.0000
02:10 16.3 15.2 93 1011.8 0.0000 0.0000
02:21 16.2 15.1 93 1011.7 0.0000 0.0000
02:31 16.1 15 93 1011.8 0.0000 0.0000
02:41 16.1 15 93 1011.8 0.0000 0.0000
02:51 16 14.9 93 1011.8 0.0000 0.0000
03:01 16 14.9 93 1011.8 0.0000 0.0000
03:11 16 14.9 93 1011.8 0.0000 0.0000
03:21 16 14.9 93 1011.9 0.0000 0.0000
03:31 16 14.9 93 1012 0.0000 0.0000
03:42 16 14.9 93 1011.9 0.0000 0.0000
03:52 16 14.9 93 1011.8 0.0000 0.0000
04:02 16 14.7 92 1011.9 0.0000 0.0000
04:12 16.1 14.8 92 1011.9 0.0000 0.0000
04:22 16 14.5 91 1012 0.0000 0.0000
04:32 16 14.4 90 1012.1 0.0000 0.0000
04:42 15.9 14.1 89 1012.1 0.0000 0.0000
04:53 15.8 14 89 1011.9 0.0000 0.0000
05:03 15.7 13.7 88 1011.9 0.0000 0.0000
05:12 15.6 13.8 89 1011.9 0.0000 0.0000
05:23 15.5 13.7 89 1011.9 0.0000 0.0000
05:43 15.4 13.6 89 1012.1 0.0000 0.0000
05:53 15.3 13.7 90 1012.2 0.0000 0.0000
06:04 15.4 13.6 89 1012.3 0.0000 0.0000
06:13 15.5 13.7 89 1012.4 0.0000 0.0000
06:23 15.5 13.7 89 1012.3 0.0000 0.0000
06:33 15.6 13.8 89 1012.2 0.0000 0.0000
06:44 15.7 13.9 89 1012.2 0.0000 0.0000
06:54 15.8 14.2 90 1012.2 0.0000 0.0000
07:04 15.9 14.4 91 1012.2 0.0000 0.0000
07:14 16 14.5 91 1012.3 0.0000 0.0000
07:24 16.2 14.7 91 1012.4 0.0000 0.0000
07:34 16.3 14.8 91 1012.5 0.0000 0.0000
07:55 16.5 15 91 1012.7 0.0000 0.0000
08:05 16.6 15.1 91 1012.8 0.0000 0.0000
08:15 16.6 15 90 1012.8 0.0000 0.0000
08:25 16.7 15.1 90 1012.8 0.0000 0.0000
08:35 16.8 15 89 1012.8 0.0000 0.0000
08:45 16.9 15.3 90 1012.8 0.0000 0.0000
08:55 17.2 15.4 89 1012.9 0.0000 0.0000
09:06 17.4 15.6 89 1012.8 0.0000 0.0000
09:16 17.8 15.6 87 1012.9 0.0000 0.0000
09:25 18.1 15.5 85 1013 0.0000 0.0000
09:35 18.3 15.6 84 1013.1 0.0000 0.0000
09:46 18.5 15.2 81 1013 0.0000 0.0000
09:56 18.8 15.3 80 1013.2 0.0000 0.0000
10:06 19 15.5 80 1013.2 0.0000 0.0000
10:16 19.3 15.6 79 1013.3 0.0000 0.0000
10:26 19.5 15.8 79 1013.4 0.0000 0.0000
10:36 19.5 15.6 78 1013.4 0.0000 0.0000
10:46 19.7 16 79 1013.4 0.0000 0.0000
10:57 19.6 15.7 78 1013.3 0.0000 0.0000
11:07 19.6 15.5 77 1013.4 0.0000 0.0000
11:17 19.7 15.4 76 1013.4 0.0000 0.0000
11:27 19.8 15.5 76 1013.4 0.0000 0.0000
11:37 19.9 15.1 74 1013.5 0.0000 0.0000
11:47 20 15.2 74 1013.5 0.0000 0.0000
11:57 20.2 15.4 74 1013.5 0.0000 0.0000
12:08 20.4 15.6 74 1013.5 0.0000 0.0000
12:18 20.5 15.7 74 1013.6 0.0000 0.0000
12:28 20.4 15.4 73 1013.5 0.0000 0.0000
12:37 20.6 15.8 74 1013.5 0.0000 0.0000
12:48 20.7 15.7 73 1013.5 0.0000 0.0000
12:58 20.6 14.9 70 1013.5 0.0000 0.0000
13:08 20.7 15.3 71 1013.5 0.0000 0.0000
13:18 20.8 15.1 70 1013.5 0.0000 0.0000
13:29 20.9 15 69 1013.6 0.0000 0.0000
13:38 20.7 14.8 69 1013.7 0.0000 0.0000
13:48 20.5 14.8 70 1013.7 0.0000 0.0000
13:59 20.4 15 71 1013.7 0.0000 0.0000
14:09 20.2 15.2 73 1013.6 0.0000 0.0000
14:19 20.1 15.3 74 1013.5 0.0000 0.0000
14:29 19.8 15.2 75 1013.6 0.0000 0.0000
14:40 19.6 15.3 76 1013.5 0.0000 0.0000
14:49 19.4 15.3 77 1013.5 0.0000 0.0000
14:59 19.5 15.4 77 1013.4 0.0000 0.0000
15:10 19.6 15.5 77 1013.2 0.0000 0.0000
15:20 19.7 15.8 78 1013.2 0.0000 0.0000
15:30 19.7 15.6 77 1013.1 0.0000 0.0000
15:40 19.6 16.1 80 1013.1 0.0000 0.0000
15:50 19.6 15.9 79 1013 0.0000 0.0000
16:00 19.5 16.5 83 1013 0.0000 0.0000
16:10 19.5 16.5 83 1012.9 0.0000 0.0000
16:20 19.5 17.3 87 1012.9 0.0000 0.0000
16:31 19.3 17.6 90 1012.7 0.1010 0.1000
16:41 19.1 17.4 90 1012.7 0.2020 0.2000
16:50 18.9 17.2 90 1012.7 0.2020 0.2000
16:57 18.7 17.2 91 1012.6 0.3030 0.3000
17:07 18.5 17.5 94 1012.5 0.4040 0.4000
17:17 18.4 17.2 93 1012.4 0.4040 0.5000
17:27 18.3 18 98 1012.2 0.4040 0.6000
17:37 18.3 18 98 1012.2 0.4040 0.6000
17:48 18.2 17.9 98 1012.1 0.5050 0.7000
17:58 18.2 17.9 98 1011.9 0.4040 0.8000
18:08 18.2 18 99 1011.8 0.4040 0.8000
18:18 18.1 18.1 100 1011.7 0.4040 0.9000
18:28 18 18 100 1011.7 0.4040 1.0000
18:38 17.9 17.9 100 1011.5 0.4040 1.1000
18:48 17.8 17.8 100 1011.5 0.5050 1.2000
18:59 17.8 17.8 100 1011.4 0.5050 1.3000
19:13 17.6 17.6 100 1011.2 0.6060 1.4000
19:22 17.6 17.6 100 1011.1 0.6060 1.5000
19:33 17.5 17.5 100 1011 0.7070 1.7000
19:43 17.4 17.4 100 1010.8 0.7070 1.9000
19:53 17.3 17.3 100 1010.7 0.7070 2.0000
20:04 17.3 17.3 100 1010.6 1.0100 2.3000
20:13 17.2 17.2 100 1010.5 2.2220 3.6000
20:23 17.2 17.2 100 1010.4 2.9290 4.4000
20:33 17.1 17.1 100 1010.4 3.5350 5.3000
20:44 17.1 17.1 100 1010.2 4.0400 6.0000
20:53 17.1 17.1 100 1010.1 4.7470 6.8000
21:03 17.1 17.1 100 1010 5.6560 8.0000
21:14 17 17 100 1010 4.9490 8.6000
21:24 17 17 100 1009.9 5.0500 9.5000
21:34 17 17 100 1009.8 5.0500 10.3000
21:44 16.9 16.9 100 1009.8 4.7470 10.7000
21:54 16.8 16.8 100 1009.7 4.6460 11.4000
22:04 16.8 16.8 100 1009.6 4.3430 12.3000
22:14 16.7 16.7 100 1009.5 4.1410 12.7000
22:24 16.7 16.7 100 1009.4 3.6360 13.1000
22:34 16.6 16.6 100 1009.3 3.3330 13.6000
22:44 16.6 16.6 100 1009.2 3.8380 14.5000
22:54 16.5 16.5 100 1009 3.8380 15.3000
23:05 16.5 16.5 100 1008.9 3.6360 16.0000
23:15 16.5 16.5 100 1008.8 3.6360 16.4000
23:24 16.5 16.5 100 1008.7 3.1310 16.8000
23:45 16.5 16.5 100 1008.5 3.3330 17.9000
23:55 16.5 16.5 100 1008.4 3.1310 18.4000

DAY STATISTIC

2018-08-19
TEMPERATURE
AVERAGE
17.7
HIGH
20.9
13:29
LOW
15.3
05:53
PRESSURE
AVERAGE
1012.0
HIGH
1013.7
13:38
LOW
1008.4
23:55
DEWPOINT
AVERAGE
15.8
HIGH
18.1
18:18
LOW
13.6
05:43
HUMIDITY
AVERAGE
89
HIGH
100
18:18
LOW
69
13:29
PRECIPITATION
RAIN HOUR
5.7
RAIN DAY
18.4
TEMPERATURE (°C)
LOW
15.3
HIGH
20.9
AVERAGE
17.7
PRESSURE (hpa)
LOW
1008.4
HIGH
1013.7
AVERAGE
1012.0
DEVICE